Cherokee Falls, South Carolina
Current Conditions -  °F | °C
As of 8:35 PM on Wednesday 22 Oct 2014 (Local Time) from KEHO Reporting Station
Clear Clear  
Wind Chill: 48°   Ceiling: Unl
Heat Index: 50°   Visibility: 10mi
Dew Point: 39°   Wind: 5mph
Humidity: 67%   Direction: 350°N
Pressure: 30.11"   Gusts: NA
Location:  35.1147°N, 81.4908°W
Report Text: KEHO 230035Z AUTO 35004KT 10SM CLR 10/04 A3011 RMK AO2 T00990040
Loading
Personal Weather Stations






























Interactive Weather Map New forecast layout! Learn more

10-Day Weather Forecast

Advertisements
Track Severe Weather on mobile